createdAt,value
2022-12-10T00:01:15.380Z,4.53
2022-12-10T00:04:19.266Z,4.50
2022-12-10T00:07:21.854Z,4.51
2022-12-10T00:10:26.950Z,4.53
2022-12-10T00:13:29.458Z,4.57
2022-12-10T00:16:34.321Z,4.59
2022-12-10T00:19:37.150Z,4.63
2022-12-10T00:22:39.859Z,4.64
2022-12-10T00:25:42.245Z,4.74
2022-12-10T00:28:46.469Z,4.64
2022-12-10T00:31:49.071Z,4.63
2022-12-10T00:34:51.814Z,4.69
2022-12-10T00:37:54.347Z,4.65
2022-12-10T00:40:58.097Z,4.62
2022-12-10T00:44:01.052Z,4.62
2022-12-10T00:47:03.966Z,4.67
2022-12-10T00:50:07.219Z,4.71
2022-12-10T00:53:11.347Z,4.77
2022-12-10T00:56:18.219Z,4.71
2022-12-10T00:59:20.974Z,4.72
2022-12-10T01:02:23.742Z,4.72
2022-12-10T01:05:26.892Z,4.73
2022-12-10T01:08:29.470Z,4.75
2022-12-10T01:11:38.175Z,4.74
2022-12-10T01:14:41.032Z,4.76
2022-12-10T01:17:45.178Z,4.80
2022-12-10T01:20:49.386Z,4.84
2022-12-10T01:23:53.552Z,4.80
2022-12-10T01:26:56.400Z,4.82
2022-12-10T01:29:59.123Z,4.83
2022-12-10T01:33:01.599Z,4.85
2022-12-10T01:36:06.359Z,4.86
2022-12-10T01:39:11.799Z,4.85
2022-12-10T01:42:15.097Z,4.91
2022-12-10T01:45:18.683Z,4.98
2022-12-10T01:48:21.832Z,5.07
2022-12-10T01:51:27.509Z,5.13
2022-12-10T01:54:37.040Z,5.16
2022-12-10T01:57:39.598Z,5.18
2022-12-10T02:01:09.542Z,5.18
2022-12-10T02:04:14.966Z,5.21
2022-12-10T02:07:27.585Z,5.24
2022-12-10T02:10:44.110Z,5.29
2022-12-10T02:14:04.648Z,5.34
2022-12-10T02:17:20.017Z,5.34
2022-12-10T02:20:30.243Z,5.34
2022-12-10T02:23:47.000Z,5.34
2022-12-10T02:26:59.623Z,5.48
2022-12-10T02:30:03.889Z,5.60
2022-12-10T02:33:08.585Z,5.64
2022-12-10T02:36:14.058Z,5.64
2022-12-10T02:39:23.510Z,5.74
2022-12-10T02:42:30.309Z,5.89
2022-12-10T02:45:35.025Z,6.00
2022-12-10T02:48:39.303Z,5.96
2022-12-10T02:51:42.299Z,5.99
2022-12-10T02:54:47.896Z,6.04
2022-12-10T02:58:03.903Z,5.97
2022-12-10T03:01:19.333Z,5.92
2022-12-10T03:04:47.628Z,5.79
2022-12-10T03:08:14.727Z,5.56
2022-12-10T03:11:26.633Z,5.45
2022-12-10T03:14:31.893Z,5.39
2022-12-10T03:17:36.102Z,5.38
2022-12-10T03:20:45.507Z,5.26
2022-12-10T03:23:50.871Z,5.16
2022-12-10T03:26:53.568Z,5.17
2022-12-10T03:29:59.406Z,5.10
2022-12-10T03:33:02.927Z,5.03
2022-12-10T03:36:08.872Z,5.00
2022-12-10T03:39:13.839Z,4.87
2022-12-10T03:42:16.577Z,4.79
2022-12-10T03:45:19.408Z,4.70
2022-12-10T03:48:21.994Z,4.66
2022-12-10T03:51:25.069Z,4.67
2022-12-10T03:54:27.715Z,4.76
2022-12-10T03:57:30.446Z,4.75
2022-12-10T04:00:33.000Z,4.73
2022-12-10T04:03:37.755Z,4.75
2022-12-10T04:06:41.560Z,4.74
2022-12-10T04:09:44.484Z,4.78
2022-12-10T04:13:06.924Z,4.90
2022-12-10T04:16:27.740Z,4.89
2022-12-10T04:19:30.379Z,4.85
2022-12-10T04:22:51.436Z,4.75
2022-12-10T04:26:12.871Z,4.79
2022-12-10T04:29:15.682Z,4.79
2022-12-10T04:32:18.937Z,4.73
2022-12-10T04:35:21.653Z,4.81
2022-12-10T04:38:24.316Z,4.81
2022-12-10T04:41:30.146Z,4.73
2022-12-10T04:44:32.990Z,4.77
2022-12-10T04:47:35.768Z,4.88
2022-12-10T04:50:38.326Z,4.88
2022-12-10T04:53:41.061Z,4.79
2022-12-10T04:56:43.918Z,4.82
2022-12-10T04:59:46.680Z,4.83
2022-12-10T05:02:50.621Z,4.93
2022-12-10T05:05:53.455Z,4.83
2022-12-10T05:08:57.288Z,4.85
2022-12-10T05:12:00.079Z,4.74
2022-12-10T05:15:02.700Z,4.78
2022-12-10T05:18:05.541Z,4.70
2022-12-10T05:21:11.503Z,4.74
2022-12-10T05:24:15.050Z,4.68
2022-12-10T05:27:17.466Z,4.69
2022-12-10T05:30:20.513Z,4.75
2022-12-10T05:33:23.949Z,4.68
2022-12-10T05:36:29.720Z,4.71
2022-12-10T05:39:32.117Z,4.68
2022-12-10T05:42:34.826Z,4.66
2022-12-10T05:45:37.240Z,4.62
2022-12-10T05:48:40.129Z,4.62
2022-12-10T05:51:42.632Z,4.61
2022-12-10T05:54:45.453Z,4.61
2022-12-10T05:57:47.898Z,4.53
2022-12-10T06:00:51.133Z,4.48
2022-12-10T06:03:53.968Z,4.43
2022-12-10T06:06:56.359Z,4.44
2022-12-10T06:09:59.109Z,4.36
2022-12-10T06:13:02.561Z,4.32
2022-12-10T06:16:10.781Z,4.25
2022-12-10T06:19:13.578Z,4.33
2022-12-10T06:22:16.450Z,4.35
2022-12-10T06:25:19.645Z,4.48
2022-12-10T06:28:22.376Z,4.52
2022-12-10T06:31:24.964Z,4.46
2022-12-10T06:34:27.895Z,4.41
2022-12-10T06:37:30.468Z,4.38
2022-12-10T06:40:33.211Z,4.37
2022-12-10T06:43:36.520Z,4.49
2022-12-10T06:46:41.507Z,4.47
2022-12-10T06:49:44.524Z,4.41
2022-12-10T06:52:51.780Z,4.35
2022-12-10T06:56:02.526Z,4.28
2022-12-10T06:59:08.515Z,4.32
2022-12-10T07:02:11.625Z,4.28
2022-12-10T07:05:14.965Z,4.16
2022-12-10T07:08:18.887Z,4.16
2022-12-10T07:11:23.723Z,4.12
2022-12-10T07:14:26.995Z,4.11
2022-12-10T07:17:31.008Z,4.13
2022-12-10T07:20:33.578Z,4.10
2022-12-10T07:23:36.597Z,4.06
2022-12-10T07:26:41.844Z,4.09
2022-12-10T07:29:45.347Z,4.11
2022-12-10T07:32:47.959Z,4.13
2022-12-10T07:35:50.712Z,4.00
2022-12-10T07:38:55.082Z,4.05
2022-12-10T07:41:59.303Z,4.11
2022-12-10T07:45:04.940Z,4.11
2022-12-10T07:48:08.069Z,4.03
2022-12-10T07:51:12.511Z,4.08
2022-12-10T07:54:16.094Z,4.08
2022-12-10T07:57:18.685Z,4.08
2022-12-10T08:00:21.484Z,4.22
2022-12-10T08:03:25.020Z,4.16
2022-12-10T08:06:29.636Z,4.23
2022-12-10T08:09:32.866Z,4.33
2022-12-10T08:12:35.525Z,4.49
2022-12-10T08:15:38.304Z,4.59
2022-12-10T08:18:42.187Z,4.79
2022-12-10T08:21:45.018Z,4.71
2022-12-10T08:24:47.555Z,4.88
2022-12-10T08:27:50.251Z,4.90
2022-12-10T08:30:52.748Z,4.92
2022-12-10T08:33:57.228Z,5.13
2022-12-10T08:36:59.755Z,5.35
2022-12-10T08:40:02.973Z,5.38
2022-12-10T08:43:05.630Z,5.47
2022-12-10T08:46:10.635Z,5.59
2022-12-10T08:49:13.140Z,5.73
2022-12-10T08:52:18.088Z,5.76
2022-12-10T08:55:20.566Z,5.80
2022-12-10T08:58:23.292Z,5.74
2022-12-10T09:01:25.848Z,5.69
2022-12-10T09:04:28.664Z,5.86
2022-12-10T09:07:31.350Z,5.72
2022-12-10T09:10:34.172Z,5.65
2022-12-10T09:13:38.476Z,5.58
2022-12-10T09:16:41.255Z,5.56
2022-12-10T09:19:43.718Z,5.48
2022-12-10T09:22:46.431Z,5.57
2022-12-10T09:25:49.012Z,5.39
2022-12-10T09:28:52.784Z,5.38
2022-12-10T09:31:55.967Z,5.29
2022-12-10T09:34:58.742Z,5.41
2022-12-10T09:38:01.205Z,5.52
2022-12-10T09:41:15.558Z,5.50
2022-12-10T09:44:33.465Z,5.46
2022-12-10T09:47:49.551Z,5.50
2022-12-10T09:50:52.043Z,5.48
2022-12-10T09:53:59.393Z,5.42
2022-12-10T09:57:06.525Z,5.42
2022-12-10T10:00:39.270Z,5.33
2022-12-10T10:03:43.141Z,5.23
2022-12-10T10:06:46.044Z,5.18
2022-12-10T10:09:49.724Z,5.24
2022-12-10T10:13:01.132Z,5.40
2022-12-10T10:16:40.351Z,5.25
2022-12-10T10:19:45.188Z,5.14
2022-12-10T10:22:47.953Z,5.13
2022-12-10T10:25:50.773Z,5.10
2022-12-10T10:28:59.935Z,5.07
2022-12-10T10:32:13.456Z,5.11
2022-12-10T10:35:27.506Z,5.08
2022-12-10T10:38:31.837Z,5.10
2022-12-10T10:41:40.715Z,5.18
2022-12-10T10:44:43.390Z,5.09
2022-12-10T10:47:46.135Z,5.14
2022-12-10T10:50:52.498Z,5.10
2022-12-10T10:53:56.646Z,5.15
2022-12-10T10:57:03.838Z,5.11
2022-12-10T11:00:18.251Z,5.12
2022-12-10T11:03:20.857Z,4.99
2022-12-10T11:06:24.154Z,4.94
2022-12-10T11:09:30.957Z,5.04
2022-12-10T11:12:38.694Z,4.99
2022-12-10T11:15:42.206Z,5.01
2022-12-10T11:19:05.620Z,4.91
2022-12-10T11:22:31.233Z,4.93
2022-12-10T11:25:42.967Z,4.88
2022-12-10T11:29:10.376Z,4.88
2022-12-10T11:32:24.798Z,4.87
2022-12-10T11:35:30.099Z,4.85
2022-12-10T11:38:50.715Z,4.76
2022-12-10T11:42:13.468Z,4.54
2022-12-10T11:45:25.778Z,4.32
2022-12-10T11:48:52.470Z,4.37
2022-12-10T11:52:01.297Z,4.39
2022-12-10T11:55:32.706Z,4.28
2022-12-10T11:58:35.366Z,4.15
2022-12-10T12:02:07.763Z,4.15
2022-12-10T12:05:32.693Z,4.08
2022-12-10T12:09:07.163Z,4.17
2022-12-10T12:12:19.527Z,4.09
2022-12-10T12:15:28.132Z,4.04
2022-12-10T12:19:02.880Z,3.90
2022-12-10T12:22:15.270Z,3.92
2022-12-10T12:25:27.866Z,3.88
2022-12-10T12:28:39.737Z,3.80
2022-12-10T12:31:55.570Z,3.80
2022-12-10T12:35:07.293Z,3.74
2022-12-10T12:38:28.575Z,3.82
2022-12-10T12:41:50.503Z,3.70
2022-12-10T12:45:15.087Z,3.72
2022-12-10T12:48:20.454Z,3.68
2022-12-10T12:51:30.307Z,3.74
2022-12-10T12:54:33.892Z,3.70
2022-12-10T12:58:02.618Z,3.63
2022-12-10T13:01:21.295Z,3.62
2022-12-10T13:04:25.372Z,3.62
2022-12-10T13:07:30.706Z,3.59
2022-12-10T13:11:04.830Z,3.57
2022-12-10T13:14:07.248Z,3.52
2022-12-10T13:17:35.715Z,3.53
2022-12-10T13:20:45.752Z,3.57
2022-12-10T13:23:56.269Z,3.51
2022-12-10T13:27:06.354Z,3.39
2022-12-10T13:30:38.444Z,3.39
2022-12-10T13:33:50.666Z,3.34
2022-12-10T13:37:14.757Z,3.42
2022-12-10T13:40:24.023Z,3.40
2022-12-10T13:43:54.671Z,3.44
2022-12-10T13:47:28.450Z,3.35
2022-12-10T13:50:41.271Z,3.35
2022-12-10T13:54:18.805Z,3.30
2022-12-10T13:57:40.389Z,3.36
2022-12-10T14:00:53.729Z,3.30
2022-12-10T14:04:14.155Z,3.37
2022-12-10T14:07:18.248Z,3.31
2022-12-10T14:10:27.298Z,3.32
2022-12-10T14:13:53.878Z,3.28
2022-12-10T14:16:57.049Z,3.26
2022-12-10T14:20:02.970Z,3.24
2022-12-10T14:23:45.765Z,3.26
2022-12-10T14:26:58.107Z,3.15
2022-12-10T14:30:04.499Z,3.19
2022-12-10T14:33:14.250Z,3.18
2022-12-10T14:36:23.048Z,3.22
2022-12-10T14:39:31.369Z,3.24
2022-12-10T14:42:34.955Z,3.21
2022-12-10T14:45:46.381Z,3.20
2022-12-10T14:48:50.948Z,3.17
2022-12-10T14:51:56.472Z,3.13
2022-12-10T14:54:59.844Z,3.12
2022-12-10T14:58:05.753Z,3.13
2022-12-10T15:01:16.920Z,3.13
2022-12-10T15:04:26.563Z,3.10
2022-12-10T15:07:37.781Z,3.06
2022-12-10T15:10:51.432Z,3.07
2022-12-10T15:13:59.201Z,3.09
2022-12-10T15:17:03.512Z,3.08
2022-12-10T15:20:40.208Z,3.13
2022-12-10T15:23:43.761Z,3.11
2022-12-10T15:26:51.860Z,3.05
2022-12-10T15:29:54.501Z,3.05
2022-12-10T15:32:57.353Z,3.06
2022-12-10T15:36:01.128Z,3.13
2022-12-10T15:39:05.275Z,3.09
2022-12-10T15:42:09.740Z,3.11
2022-12-10T15:45:40.215Z,3.10
2022-12-10T15:48:43.239Z,3.14
2022-12-10T15:51:46.098Z,3.17
2022-12-10T15:54:50.657Z,3.17
2022-12-10T15:57:53.433Z,3.17
2022-12-10T16:00:56.095Z,3.17
2022-12-10T16:03:58.799Z,3.16
2022-12-10T16:07:01.229Z,3.19
2022-12-10T16:10:05.165Z,3.18
2022-12-10T16:13:13.131Z,3.26
2022-12-10T16:16:16.073Z,3.22
2022-12-10T16:19:18.653Z,3.23
2022-12-10T16:22:21.427Z,3.25
2022-12-10T16:25:25.777Z,3.26
2022-12-10T16:28:29.071Z,3.26
2022-12-10T16:31:31.484Z,3.26
2022-12-10T16:34:34.253Z,3.26
2022-12-10T16:37:37.102Z,3.29
2022-12-10T16:40:42.204Z,3.28
2022-12-10T16:43:45.462Z,3.33
2022-12-10T16:46:48.327Z,3.31
2022-12-10T16:49:50.982Z,3.31
2022-12-10T16:52:56.252Z,3.35
2022-12-10T16:55:58.682Z,3.30
2022-12-10T16:59:01.784Z,3.35
2022-12-10T17:02:06.837Z,3.38
2022-12-10T17:05:35.931Z,3.32
2022-12-10T17:08:38.634Z,3.32
2022-12-10T17:11:45.863Z,3.32
2022-12-10T17:14:48.498Z,3.35
2022-12-10T17:17:51.176Z,3.35
2022-12-10T17:20:53.756Z,3.36
2022-12-10T17:23:56.567Z,3.38
2022-12-10T17:27:14.191Z,3.43
2022-12-10T17:30:17.244Z,3.37
2022-12-10T17:33:22.575Z,3.33
2022-12-10T17:36:25.460Z,3.36
2022-12-10T17:39:29.993Z,3.38
2022-12-10T17:42:32.780Z,3.40
2022-12-10T17:45:35.599Z,3.36
2022-12-10T17:48:38.916Z,3.44
2022-12-10T17:51:42.450Z,3.42
2022-12-10T17:54:45.472Z,3.42
2022-12-10T17:57:48.140Z,3.46
2022-12-10T18:00:52.755Z,3.45
2022-12-10T18:03:55.595Z,3.40
2022-12-10T18:06:58.023Z,3.41
2022-12-10T18:10:00.913Z,3.46
2022-12-10T18:13:03.604Z,3.45
2022-12-10T18:16:12.503Z,3.48
2022-12-10T18:19:16.057Z,3.49
2022-12-10T18:22:19.256Z,3.49
2022-12-10T18:25:23.234Z,3.47
2022-12-10T18:28:26.271Z,3.49
2022-12-10T18:31:35.560Z,3.52
2022-12-10T18:34:38.800Z,3.55
2022-12-10T18:37:41.669Z,3.53
2022-12-10T18:40:44.527Z,3.60
2022-12-10T18:43:47.096Z,3.66
2022-12-10T18:46:51.516Z,3.62
2022-12-10T18:49:54.008Z,3.63
2022-12-10T18:52:57.042Z,3.65
2022-12-10T18:55:59.480Z,3.66
2022-12-10T18:59:03.565Z,3.68
2022-12-10T19:02:07.880Z,3.70
2022-12-10T19:05:11.549Z,3.74
2022-12-10T19:08:14.976Z,3.75
2022-12-10T19:11:19.364Z,3.78
2022-12-10T19:14:23.873Z,3.70
2022-12-10T19:17:26.907Z,3.72
2022-12-10T19:20:30.549Z,3.71
2022-12-10T19:23:33.772Z,3.67
2022-12-10T19:26:38.598Z,3.66
2022-12-10T19:29:41.676Z,3.69
2022-12-10T19:32:44.263Z,3.70
2022-12-10T19:35:47.205Z,3.70
2022-12-10T19:38:49.711Z,3.68
2022-12-10T19:41:53.584Z,3.69
2022-12-10T19:44:56.089Z,3.69
2022-12-10T19:47:59.057Z,3.70
2022-12-10T19:51:01.982Z,3.70
2022-12-10T19:54:04.765Z,3.69
2022-12-10T19:57:11.634Z,3.67
2022-12-10T20:00:21.046Z,3.64
2022-12-10T20:03:23.735Z,3.70
2022-12-10T20:06:30.760Z,3.66
2022-12-10T20:09:33.506Z,3.62
2022-12-10T20:12:36.736Z,3.65
2022-12-10T20:15:43.905Z,3.73
2022-12-10T20:18:50.848Z,3.68
2022-12-10T20:21:53.772Z,3.67
2022-12-10T20:24:56.254Z,3.69
2022-12-10T20:27:59.053Z,3.72
2022-12-10T20:31:01.572Z,3.73
2022-12-10T20:34:09.430Z,3.74
2022-12-10T20:37:13.305Z,3.73
2022-12-10T20:40:34.573Z,3.77
2022-12-10T20:43:37.105Z,3.77
2022-12-10T20:46:40.223Z,3.79
2022-12-10T20:49:42.749Z,3.82
2022-12-10T20:52:45.767Z,3.77
2022-12-10T20:55:48.202Z,3.77
2022-12-10T20:58:51.997Z,3.81
2022-12-10T21:01:55.421Z,3.86
2022-12-10T21:04:58.249Z,3.95
2022-12-10T21:08:07.480Z,3.90
2022-12-10T21:11:10.462Z,3.88
2022-12-10T21:14:50.623Z,3.88
2022-12-10T21:17:35.953Z,3.89
2022-12-10T21:20:38.943Z,3.88
2022-12-10T21:23:42.597Z,3.88
2022-12-10T21:26:45.122Z,3.85
2022-12-10T21:29:48.038Z,3.89
2022-12-10T21:32:50.665Z,3.92
2022-12-10T21:35:55.286Z,3.94
2022-12-10T21:38:58.228Z,3.95
2022-12-10T21:42:19.550Z,4.00
2022-12-10T21:45:22.132Z,3.93
2022-12-10T21:48:27.470Z,3.93
2022-12-10T21:51:33.736Z,3.89
2022-12-10T21:54:39.526Z,3.80
2022-12-10T21:57:42.006Z,3.78
2022-12-10T22:00:45.131Z,3.77
2022-12-10T22:03:49.455Z,3.67
2022-12-10T22:06:51.960Z,3.58
2022-12-10T22:09:54.755Z,3.67
2022-12-10T22:12:58.044Z,3.56
2022-12-10T22:16:02.547Z,3.61
2022-12-10T22:19:05.767Z,3.53
2022-12-10T22:22:08.890Z,3.53
2022-12-10T22:25:11.832Z,3.51
2022-12-10T22:28:14.757Z,3.47
2022-12-10T22:31:18.255Z,3.43
2022-12-10T22:34:21.580Z,3.37
2022-12-10T22:37:25.190Z,3.36
2022-12-10T22:40:28.175Z,3.43
2022-12-10T22:46:54.122Z,3.35
2022-12-10T22:49:57.699Z,3.42
2022-12-10T22:53:00.467Z,3.42
2022-12-10T22:56:06.650Z,3.37
2022-12-10T22:59:10.459Z,3.29
2022-12-10T23:02:13.416Z,3.31
2022-12-10T23:05:16.273Z,3.30
2022-12-10T23:08:20.100Z,3.22
2022-12-10T23:11:23.188Z,3.19
2022-12-10T23:14:25.842Z,3.26
2022-12-10T23:17:28.702Z,3.31
2022-12-10T23:20:33.382Z,3.20
2022-12-10T23:23:36.175Z,3.17
2022-12-10T23:26:43.988Z,3.22
2022-12-10T23:29:47.241Z,3.20
2022-12-10T23:32:50.051Z,3.11
2022-12-10T23:35:52.956Z,3.07
2022-12-10T23:38:55.533Z,3.10
2022-12-10T23:41:58.424Z,3.09
2022-12-10T23:45:01.134Z,3.07
2022-12-10T23:48:04.201Z,3.06
2022-12-10T23:51:07.230Z,3.03
2022-12-10T23:54:10.031Z,2.98
2022-12-10T23:57:12.888Z,3.02
